Minnora, West Virginia
Current Conditions -  °F | °C
As of 2:54 PM on Friday 28 Nov 2014 (Local Time) from KCRW Reporting Station
Overcast Overcast  
Wind Chill: 26°   Ceiling: 2700
Heat Index: 32°   Visibility: 10mi
Dew Point: 20°   Wind: 7mph
Humidity: 61%   Direction: NA
Pressure: 30.29"   Gusts: NA
Location:  38.7369°N, 81.0929°W
Report Text: KCRW 281954Z VRB06KT 10SM BKN027 BKN095 OVC180 00/M07 A3029 RMK AO2 SLP265 OVC V BKN T00001067
Loading
Personal Weather Stations






























Interactive Weather Map New forecast layout! Learn more

10-Day Weather Forecast

Advertisements
Track Severe Weather on mobile